Val Marie Southeast, Canada
Current Conditions -  °F | °C
As of 9:53 PM on Saturday 25 Oct 2014 (Local Time) from KGGW Reporting Station
Clear Clear  
Wind Chill: 53°   Ceiling: Unl
Heat Index: 53°   Visibility: 10mi
Dew Point: 31°   Wind: 17mph
Humidity: 43%   Direction: 110°ESE
Pressure: 29.65"   Gusts: NA
Location:  49.07°N, 107.58°W
Report Text: KGGW 260353Z AUTO 11015KT 10SM CLR 12/M01 A2965 RMK AO2 SLP045 T01171006 $
Loading
Personal Weather Stations






























Interactive Weather Map
Tropical Storm Tracking
New forecast layout! Learn more

10-Day Weather Forecast

Advertisements
Track Severe Weather on mobile